ADDS METAR Data

Data at: 0530 UTC 20 Sep 2017

METAR for:KFOK (Westhampton/Gabreski, NY, US)
Text:KFOK 200453Z AUTO 02018G27KT 10SM OVC013 21/18 A2982 RMK AO2 PK WND 04027/0441 RAB0357E43 SLP096 P0000 T02060183 402220194
Temperature: 20.6°C ( 69°F)
Dewpoint: 18.3°C ( 65°F) [RH = 87%]
Pressure (altimeter):29.82 inches Hg (1009.9 mb) [Sea level pressure: 1009.6 mb]
Winds:from the NNE (20 degrees) at 21 MPH (18 knots; 9.3 m/s) gusting to 31 MPH (27 knots; 13.9 m/s)
Visibility:10 or more sm (16+ km)
Ceiling:1300 feet AGL
Clouds: overcast cloud deck at 1300 feet AGL
QC Flag:automated observation with no human augmentation